Time;durP1;ratioP1;P1;durP2;ratioP2;P2;SDS_P1;SDS_P2;PMS_P1;PMS_P2;Temp;Humidity;BMP_temperature;BMP_pressure;BME280_temperature;BME280_humidity;BME280_pressure;Samples;Min_cycle;Max_cycle;Signal;HPM_P1;HPM_P2
2023/03/29 00:02:28;;;;;;;;;;;;;;;7.86;83.60;100452.03;5099162;28;20406;-76
2023/03/29 00:05:00;;;;;;;;;;;;;;;7.80;84.15;100446.25;5102604;28;20003;-75
2023/03/29 00:07:28;;;;;;;;;;;;;;;7.71;84.79;100428.50;5099657;28;19961;-75
2023/03/29 00:09:54;;;;;;;;;;;;;;;7.68;84.52;100433.94;5102782;28;19966;-74
2023/03/29 00:12:20;;;;;;;;;;;;;;;7.60;85.42;100430.97;5099323;28;19924;-75
2023/03/29 00:14:46;;;;;;;;;;;;;;;7.56;85.75;100434.75;5102209;28;19926;-76
2023/03/29 00:17:12;;;;;;;;;;;;;;;7.44;86.51;100429.47;5099625;28;19920;-76
2023/03/29 00:19:37;;;;;;;;;;;;;;;7.12;88.45;100428.97;5100998;28;19943;-75
2023/03/29 00:22:04;;;;;;;;;;;;;;;7.12;88.71;100426.34;5100857;28;19942;-75
2023/03/29 00:24:30;;;;;;;;;;;;;;;6.90;89.88;100434.75;5099845;28;19920;-76
2023/03/29 00:26:55;;;;;;;;;;;;;;;6.85;89.66;100427.16;5102310;28;19926;-76
2023/03/29 00:29:21;;;;;;;;;;;;;;;6.78;90.33;100418.00;5098935;28;20445;-79
2023/03/29 00:31:52;;;;;;;;;;;;;;;6.61;91.71;100423.47;5083618;28;20307;-75
2023/03/29 00:34:25;;;;;;;;;;;;;;;6.52;92.12;100424.91;5080152;28;19924;-75
2023/03/29 00:36:51;;;;;;;;;;;;;;;6.48;91.75;100425.22;5098848;28;20375;-76
2023/03/29 00:39:18;;;;;;;;;;;;;;;6.53;91.90;100423.13;5083273;28;20816;-76
2023/03/29 00:41:48;;;;;;;;;;;;;;;6.21;93.37;100419.03;5099621;28;19920;-75
2023/03/29 00:44:31;;;;;;;;;;;;;;;6.07;95.11;100412.84;5101335;28;20018;-75
2023/03/29 00:46:57;;;;;;;;;;;;;;;6.15;94.44;100409.75;5101596;28;19923;-77
2023/03/29 00:49:23;;;;;;;;;;;;;;;6.20;94.00;100406.84;5098454;28;19966;-76
2023/03/29 00:51:48;;;;;;;;;;;;;;;6.29;92.16;100411.53;5083633;28;19920;-75
2023/03/29 00:54:17;;;;;;;;;;;;;;;6.11;92.96;100414.38;5098902;28;19928;-74
2023/03/29 00:56:44;;;;;;;;;;;;;;;6.18;93.03;100409.59;5100947;28;19927;-75
2023/03/29 00:59:12;;;;;;;;;;;;;;;6.16;93.59;100412.31;5096840;28;19924;-76
2023/03/29 01:01:41;;;;;;;;;;;;;;;6.08;94.94;100409.28;5097764;28;19947;-75
2023/03/29 01:04:17;;;;;;;;;;;;;;;6.10;94.77;100412.66;5097854;28;20018;-77
2023/03/29 01:06:55;;;;;;;;;;;;;;;5.99;95.65;100412.50;5082475;28;19974;-76
2023/03/29 01:09:22;;;;;;;;;;;;;;;5.91;97.39;100421.72;5098472;28;20435;-75
2023/03/29 01:11:52;;;;;;;;;;;;;;;5.65;99.49;100431.13;5102514;28;19927;-76
2023/03/29 01:14:25;;;;;;;;;;;;;;;5.64;100.00;100424.19;5098305;28;20416;-76
2023/03/29 01:16:52;;;;;;;;;;;;;;;5.63;100.00;100419.88;5083608;28;19920;-77
2023/03/29 01:19:20;;;;;;;;;;;;;;;5.60;100.00;100422.66;5079948;28;19920;-74
2023/03/29 01:21:51;;;;;;;;;;;;;;;5.51;100.00;100420.59;5101371;28;19927;-75
2023/03/29 01:24:32;;;;;;;;;;;;;;;5.47;100.00;100424.34;5098202;28;20431;-76
2023/03/29 01:27:14;;;;;;;;;;;;;;;5.42;100.00;100423.78;5098701;28;19927;-75
2023/03/29 01:29:49;;;;;;;;;;;;;;;5.54;100.00;100423.88;5099392;28;20382;-75
2023/03/29 01:32:21;;;;;;;;;;;;;;;5.46;100.00;100420.88;5083296;28;19953;-75
2023/03/29 01:34:50;;;;;;;;;;;;;;;5.35;100.00;100408.41;5101128;28;19923;-77
2023/03/29 01:37:25;;;;;;;;;;;;;;;5.39;100.00;100413.47;5079259;28;19927;-75
2023/03/29 01:39:51;;;;;;;;;;;;;;;5.53;100.00;100416.13;5113104;27;19974;-75
2023/03/29 01:42:28;;;;;;;;;;;;;;;5.31;100.00;100417.34;5101015;28;20031;-75
2023/03/29 01:45:02;;;;;;;;;;;;;;;5.26;100.00;100413.31;5097717;28;19920;-75
2023/03/29 01:47:37;;;;;;;;;;;;;;;5.30;100.00;100410.44;5097760;28;20011;-75
2023/03/29 01:50:09;;;;;;;;;;;;;;;5.39;100.00;100410.84;5081522;28;19915;-77
2023/03/29 01:52:37;;;;;;;;;;;;;;;5.38;100.00;100398.69;5100330;28;19924;-76
2023/03/29 01:55:07;;;;;;;;;;;;;;;5.33;100.00;100399.81;5100386;28;19915;-77
2023/03/29 01:57:33;;;;;;;;;;;;;;;5.30;100.00;100397.34;5105816;28;19927;-77
2023/03/29 01:59:59;;;;;;;;;;;;;;;5.46;100.00;100399.94;5110887;28;19919;-77
2023/03/29 02:02:26;;;;;;;;;;;;;;;5.51;99.25;100391.81;5086505;28;19927;-76
2023/03/29 02:04:54;;;;;;;;;;;;;;;5.50;98.68;100384.88;5106813;28;19920;-76
2023/03/29 02:07:23;;;;;;;;;;;;;;;5.48;98.34;100365.81;5102603;28;20014;-77
2023/03/29 02:09:51;;;;;;;;;;;;;;;5.09;99.45;100359.34;5101192;28;19919;-77
2023/03/29 02:12:17;;;;;;;;;;;;;;;5.27;98.69;100353.06;5083396;28;19932;-76
2023/03/29 02:14:42;;;;;;;;;;;;;;;5.35;99.45;100345.63;5085959;28;20437;-77
2023/03/29 02:17:19;;;;;;;;;;;;;;;5.43;98.08;100358.22;5102641;28;19920;-77
2023/03/29 02:19:48;;;;;;;;;;;;;;;5.44;97.91;100356.44;5086472;28;19934;-77
2023/03/29 02:22:17;;;;;;;;;;;;;;;5.26;98.38;100367.06;5102023;28;20384;-78
2023/03/29 02:24:44;;;;;;;;;;;;;;;5.16;99.07;100349.38;5103865;28;20045;-75
2023/03/29 02:27:09;;;;;;;;;;;;;;;4.96;100.00;100363.59;5084167;28;20477;-75
2023/03/29 02:29:35;;;;;;;;;;;;;;;4.71;100.00;100368.56;5084692;28;19930;-77
2023/03/29 02:32:19;;;;;;;;;;;;;;;4.83;100.00;100378.31;5105507;28;20439;-78
2023/03/29 02:34:53;;;;;;;;;;;;;;;4.64;100.00;100373.28;5086037;28;19975;-75
2023/03/29 02:37:20;;;;;;;;;;;;;;;4.59;100.00;100364.84;5082642;28;19927;-76
2023/03/29 02:39:48;;;;;;;;;;;;;;;4.60;100.00;100365.66;5085570;28;20403;-77
2023/03/29 02:42:16;;;;;;;;;;;;;;;4.67;100.00;100372.25;5066580;28;19971;-78
2023/03/29 02:44:43;;;;;;;;;;;;;;;4.73;100.00;100366.69;5085258;28;19959;-77
2023/03/29 02:47:32;;;;;;;;;;;;;;;4.77;100.00;100358.56;5083445;28;20343;-76
2023/03/29 02:49:59;;;;;;;;;;;;;;;4.80;100.00;100366.25;5075675;28;20365;-76
2023/03/29 02:52:27;;;;;;;;;;;;;;;4.60;100.00;100366.50;5086580;28;20399;-77
2023/03/29 02:54:54;;;;;;;;;;;;;;;4.18;100.00;100368.88;5088040;28;20328;-77
2023/03/29 02:57:25;;;;;;;;;;;;;;;4.12;100.00;100364.84;5082316;28;19924;-77
2023/03/29 02:59:55;;;;;;;;;;;;;;;4.13;100.00;100362.13;5082646;28;19928;-78
2023/03/29 03:02:24;;;;;;;;;;;;;;;4.21;100.00;100359.09;5099794;28;19920;-78
2023/03/29 03:04:52;;;;;;;;;;;;;;;4.32;100.00;100354.13;5082201;28;20272;-77
2023/03/29 03:07:18;;;;;;;;;;;;;;;4.37;100.00;100359.09;5082491;28;19924;-77
2023/03/29 03:09:45;;;;;;;;;;;;;;;4.41;100.00;100353.66;5102319;28;20419;-76
2023/03/29 03:12:10;;;;;;;;;;;;;;;4.46;100.00;100354.22;5082938;28;20012;-77
2023/03/29 03:14:36;;;;;;;;;;;;;;;4.45;100.00;100352.53;5083717;28;19984;-77
2023/03/29 03:17:01;;;;;;;;;;;;;;;4.57;100.00;100360.63;5080820;28;19928;-76
2023/03/29 03:19:27;;;;;;;;;;;;;;;4.66;100.00;100344.41;5079138;28;19924;-75
2023/03/29 03:21:52;;;;;;;;;;;;;;;4.66;100.00;100344.41;5081996;28;19920;-77
2023/03/29 03:24:19;;;;;;;;;;;;;;;4.71;100.00;100352.88;5077692;28;20640;-76
2023/03/29 03:26:45;;;;;;;;;;;;;;;4.70;100.00;100357.25;5078659;28;19921;-77
2023/03/29 03:29:12;;;;;;;;;;;;;;;4.53;100.00;100366.03;5081803;28;20652;-76
2023/03/29 03:31:56;;;;;;;;;;;;;;;4.58;100.00;100364.94;5083924;28;20288;-76
2023/03/29 03:34:42;;;;;;;;;;;;;;;4.52;100.00;100374.81;5064524;28;19920;-75
2023/03/29 03:37:07;;;;;;;;;;;;;;;4.61;100.00;100377.81;5082968;28;19920;-76
2023/03/29 03:39:34;;;;;;;;;;;;;;;4.63;100.00;100362.91;5079858;28;20393;-75
2023/03/29 03:42:01;;;;;;;;;;;;;;;4.66;100.00;100353.09;5080587;28;20331;-75
2023/03/29 03:44:27;;;;;;;;;;;;;;;4.78;100.00;100351.56;5078672;28;20035;-76
2023/03/29 03:47:11;;;;;;;;;;;;;;;4.72;100.00;100349.31;5079641;28;20391;-76
2023/03/29 03:49:36;;;;;;;;;;;;;;;4.62;100.00;100359.44;5080460;28;19925;-76
2023/03/29 03:52:02;;;;;;;;;;;;;;;4.40;100.00;100362.41;5080679;28;20006;-77
2023/03/29 03:54:27;;;;;;;;;;;;;;;4.41;100.00;100358.88;5078647;28;19921;-77
2023/03/29 03:57:16;;;;;;;;;;;;;;;4.30;100.00;100358.59;5055449;28;19939;-78
2023/03/29 03:59:47;;;;;;;;;;;;;;;4.23;100.00;100367.72;5081160;28;19928;-77
2023/03/29 04:02:19;;;;;;;;;;;;;;;4.17;100.00;100360.22;5077959;28;20290;-77
2023/03/29 04:04:46;;;;;;;;;;;;;;;4.21;100.00;100353.88;5081003;28;19976;-77
2023/03/29 04:07:16;;;;;;;;;;;;;;;4.24;100.00;100348.47;5082371;28;19924;-76
2023/03/29 04:10:01;;;;;;;;;;;;;;;4.20;100.00;100341.75;5078422;28;20318;-77
2023/03/29 04:12:29;;;;;;;;;;;;;;;4.23;100.00;100341.59;5078936;28;20395;-76
2023/03/29 04:14:55;;;;;;;;;;;;;;;4.22;100.00;100344.28;5081143;28;19916;-77
2023/03/29 04:17:22;;;;;;;;;;;;;;;4.19;100.00;100345.28;5077481;28;20368;-76
2023/03/29 04:20:13;;;;;;;;;;;;;;;3.86;100.00;100347.09;5081759;28;20423;-76
2023/03/29 04:22:40;;;;;;;;;;;;;;;3.67;100.00;100342.00;5079475;28;19988;-76
2023/03/29 04:25:07;;;;;;;;;;;;;;;3.90;100.00;100343.38;5078575;28;20384;-76
2023/03/29 04:27:39;;;;;;;;;;;;;;;4.00;100.00;100355.03;5080623;28;19920;-75
2023/03/29 04:30:12;;;;;;;;;;;;;;;4.02;100.00;100353.19;5079581;28;19954;-76
2023/03/29 04:32:57;;;;;;;;;;;;;;;3.92;100.00;100333.72;5079260;28;19931;-76
2023/03/29 04:35:23;;;;;;;;;;;;;;;4.03;100.00;100333.97;5081182;28;19916;-77
2023/03/29 04:37:51;;;;;;;;;;;;;;;4.06;100.00;100331.22;5065155;28;19928;-79
2023/03/29 04:40:19;;;;;;;;;;;;;;;4.04;100.00;100340.88;5080297;28;19919;-77
2023/03/29 04:43:01;;;;;;;;;;;;;;;4.11;100.00;100352.69;5081558;28;19920;-77
2023/03/29 04:45:27;;;;;;;;;;;;;;;4.03;100.00;100360.09;5078822;28;19925;-78
2023/03/29 04:48:10;;;;;;;;;;;;;;;3.84;100.00;100359.38;5079306;28;19927;-77
2023/03/29 04:50:40;;;;;;;;;;;;;;;3.74;100.00;100358.19;5079187;28;19928;-77
2023/03/29 04:53:06;;;;;;;;;;;;;;;3.83;100.00;100362.94;5080414;28;19924;-77
2023/03/29 04:55:32;;;;;;;;;;;;;;;3.80;100.00;100366.53;5064671;28;19932;-77
2023/03/29 04:58:00;;;;;;;;;;;;;;;3.86;100.00;100373.19;5082581;28;19927;-78
2023/03/29 05:00:44;;;;;;;;;;;;;;;3.76;100.00;100374.63;5078554;28;19920;-78
2023/03/29 05:03:12;;;;;;;;;;;;;;;3.73;100.00;100373.00;5081355;28;20446;-76
2023/03/29 05:05:42;;;;;;;;;;;;;;;3.84;100.00;100369.81;5078845;28;19920;-76
2023/03/29 05:08:09;;;;;;;;;;;;;;;3.82;100.00;100377.75;5081556;28;19974;-76
2023/03/29 05:10:53;;;;;;;;;;;;;;;3.82;100.00;100376.91;5078016;28;20003;-75
2023/03/29 05:13:19;;;;;;;;;;;;;;;3.80;100.00;100369.16;5081190;28;19951;-76
2023/03/29 05:15:44;;;;;;;;;;;;;;;3.69;100.00;100367.09;5061715;28;19928;-74
2023/03/29 05:18:10;;;;;;;;;;;;;;;3.71;100.00;100361.81;5072324;28;19921;-75
2023/03/29 05:20:36;;;;;;;;;;;;;;;3.68;100.00;100360.19;5068812;28;19924;-74
2023/03/29 05:23:02;;;;;;;;;;;;;;;3.63;100.00;100367.41;5068486;28;19967;-75
2023/03/29 05:25:47;;;;;;;;;;;;;;;3.65;100.00;100365.53;5069429;28;19928;-80
2023/03/29 05:28:14;;;;;;;;;;;;;;;3.63;100.00;100372.63;5072000;28;20369;-77
2023/03/29 05:30:39;;;;;;;;;;;;;;;3.69;100.00;100377.53;5075033;28;19921;-79
2023/03/29 05:33:15;;;;;;;;;;;;;;;3.55;100.00;100385.22;5077492;28;19964;-79
2023/03/29 05:35:40;;;;;;;;;;;;;;;3.19;100.00;100381.84;5074797;28;19921;-77
2023/03/29 05:38:07;;;;;;;;;;;;;;;3.23;100.00;100394.69;5080925;28;19926;-79
2023/03/29 05:40:34;;;;;;;;;;;;;;;3.32;100.00;100376.88;5070511;28;19927;-79
2023/03/29 05:43:38;;;;;;;;;;;;;;;3.13;100.00;100388.22;5062499;28;19927;-79
2023/03/29 05:46:05;;;;;;;;;;;;;;;3.05;100.00;100394.75;5078349;28;19951;-81
2023/03/29 05:48:31;;;;;;;;;;;;;;;3.04;100.00;100388.69;5075346;28;19925;-84
2023/03/29 05:50:57;;;;;;;;;;;;;;;3.29;100.00;100388.31;5069260;28;20422;-76
2023/03/29 05:53:25;;;;;;;;;;;;;;;3.51;100.00;100388.06;5068972;28;19928;-78
2023/03/29 05:55:52;;;;;;;;;;;;;;;3.64;100.00;100390.00;5068135;28;19924;-77
2023/03/29 05:58:20;;;;;;;;;;;;;;;3.75;100.00;100385.97;5068567;28;19924;-78
2023/03/29 06:00:48;;;;;;;;;;;;;;;3.91;100.00;100392.06;5068436;28;20470;-77
2023/03/29 06:03:42;;;;;;;;;;;;;;;4.01;100.00;100383.66;5067665;28;19921;-79
2023/03/29 06:06:09;;;;;;;;;;;;;;;4.01;100.00;100380.22;5050817;28;20294;-79
2023/03/29 06:08:35;;;;;;;;;;;;;;;3.88;100.00;100387.03;5065209;28;20380;-79
2023/03/29 06:11:23;;;;;;;;;;;;;;;4.01;100.00;100393.28;5063183;28;19932;-84
2023/03/29 06:14:07;;;;;;;;;;;;;;;4.15;100.00;100396.00;5066582;28;20031;-86
2023/03/29 06:16:36;;;;;;;;;;;;;;;4.18;100.00;100411.53;5071833;28;20368;-88
2023/03/29 06:19:01;;;;;;;;;;;;;;;4.31;100.00;100401.25;5106217;28;19923;-90
2023/03/29 06:21:29;;;;;;;;;;;;;;;4.34;100.00;100417.63;5084308;28;20303;-88
2023/03/29 06:23:55;;;;;;;;;;;;;;;4.34;100.00;100412.38;5085154;28;19959;-88
2023/03/29 06:26:21;;;;;;;;;;;;;;;4.36;100.00;100420.16;5081718;28;19920;-87
2023/03/29 06:28:47;;;;;;;;;;;;;;;4.39;100.00;100418.22;5085532;28;19927;-87
2023/03/29 06:31:13;;;;;;;;;;;;;;;4.43;100.00;100427.56;5081344;28;20030;-87
2023/03/29 06:33:39;;;;;;;;;;;;;;;4.35;100.00;100419.31;5064480;28;19943;-86
2023/03/29 06:36:20;;;;;;;;;;;;;;;4.46;100.00;100422.19;5092676;28;20032;-87
2023/03/29 06:38:46;;;;;;;;;;;;;;;4.60;100.00;100413.56;5110089;28;20031;-89
2023/03/29 06:41:38;;;;;;;;;;;;;;;4.57;100.00;100418.13;5075969;28;19924;-86
2023/03/29 06:44:06;;;;;;;;;;;;;;;4.72;100.00;100422.50;5110341;28;19919;-89
2023/03/29 06:46:36;;;;;;;;;;;;;;;4.77;100.00;100417.91;5114874;28;20022;-88
2023/03/29 06:49:05;;;;;;;;;;;;;;;4.91;100.00;100420.56;5117919;28;19940;-88
2023/03/29 06:51:40;;;;;;;;;;;;;;;5.02;100.00;100428.66;5096734;28;19934;-87
2023/03/29 06:54:06;;;;;;;;;;;;;;;5.11;100.00;100433.38;5123378;28;19925;-88
2023/03/29 06:56:33;;;;;;;;;;;;;;;5.09;100.00;100447.47;5103425;28;19920;-89
2023/03/29 06:59:04;;;;;;;;;;;;;;;4.92;100.00;100445.78;5106130;28;19930;-89
2023/03/29 07:01:41;;;;;;;;;;;;;;;4.94;100.00;100449.19;5108908;28;19925;-81
2023/03/29 07:04:14;;;;;;;;;;;;;;;4.83;100.00;100462.00;5105897;28;19941;-86
2023/03/29 07:07:04;;;;;;;;;;;;;;;4.94;100.00;100475.34;5119000;28;19920;-87
2023/03/29 07:09:34;;;;;;;;;;;;;;;5.00;100.00;100459.28;5106178;28;19904;-87
2023/03/29 07:12:32;;;;;;;;;;;;;;;5.09;100.00;100448.31;5065941;28;19930;-87
2023/03/29 07:15:05;;;;;;;;;;;;;;;5.20;100.00;100455.53;5097271;28;19924;-82
2023/03/29 07:17:50;;;;;;;;;;;;;;;5.32;100.00;100447.84;5109459;28;19920;-88
2023/03/29 07:20:16;;;;;;;;;;;;;;;5.44;100.00;100469.00;5115249;28;19994;-87
2023/03/29 07:22:49;;;;;;;;;;;;;;;5.60;100.00;100469.78;5113126;28;20015;-86
2023/03/29 07:25:17;;;;;;;;;;;;;;;5.74;100.00;100467.22;5096073;28;20167;-87
2023/03/29 07:27:45;;;;;;;;;;;;;;;5.91;100.00;100461.88;5116236;28;19991;-86
2023/03/29 07:30:12;;;;;;;;;;;;;;;5.88;100.00;100454.22;5112802;28;20065;-78
2023/03/29 07:32:40;;;;;;;;;;;;;;;5.82;100.00;100449.31;5114498;28;19920;-90
2023/03/29 07:35:16;;;;;;;;;;;;;;;6.06;100.00;100437.38;5075098;28;19927;-88
2023/03/29 07:37:43;;;;;;;;;;;;;;;6.16;100.00;100449.00;5095422;28;19924;-89
2023/03/29 07:40:22;;;;;;;;;;;;;;;6.28;100.00;100451.78;5099043;28;19927;-89
2023/03/29 07:42:55;;;;;;;;;;;;;;;6.41;100.00;100450.13;5111777;28;19920;-89
2023/03/29 07:45:22;;;;;;;;;;;;;;;6.48;100.00;100456.66;5113484;28;19924;-81
2023/03/29 07:48:09;;;;;;;;;;;;;;;6.48;100.00;100451.44;5106964;28;20064;-82
2023/03/29 07:50:47;;;;;;;;;;;;;;;6.53;100.00;100441.50;5106216;28;19969;-82
2023/03/29 07:53:15;;;;;;;;;;;;;;;6.62;100.00;100440.91;5082865;28;20341;-82
2023/03/29 07:55:46;;;;;;;;;;;;;;;6.84;100.00;100433.34;5080203;28;19924;-82
2023/03/29 07:58:41;;;;;;;;;;;;;;;7.04;100.00;100447.84;5101270;28;19920;-87
2023/03/29 08:01:14;;;;;;;;;;;;;;;7.17;99.48;100463.63;5104858;28;19920;-88
2023/03/29 08:04:03;;;;;;;;;;;;;;;7.12;100.00;100450.81;5112815;28;19921;-89
2023/03/29 08:06:51;;;;;;;;;;;;;;;7.07;100.00;100462.56;5076331;28;19920;-88
2023/03/29 08:09:18;;;;;;;;;;;;;;;7.17;100.00;100469.72;5093045;28;20012;-90
2023/03/29 08:11:44;;;;;;;;;;;;;;;7.24;100.00;100468.41;5105063;28;19916;-81
2023/03/29 08:14:22;;;;;;;;;;;;;;;7.24;100.00;100470.19;5082866;28;19978;-84
2023/03/29 08:16:55;;;;;;;;;;;;;;;7.33;100.00;100475.66;5078971;28;19956;-79
2023/03/29 08:19:21;;;;;;;;;;;;;;;7.39;100.00;100469.16;5069165;28;19932;-83
2023/03/29 08:22:01;;;;;;;;;;;;;;;7.59;100.00;100455.56;5072193;28;19916;-82
2023/03/29 08:24:36;;;;;;;;;;;;;;;7.85;100.00;100455.59;5074481;28;20149;-83
2023/03/29 08:27:05;;;;;;;;;;;;;;;8.03;100.00;100443.84;5072532;28;19930;-84
2023/03/29 08:29:31;;;;;;;;;;;;;;;8.22;100.00;100445.09;5078639;28;19920;-81
2023/03/29 08:31:57;;;;;;;;;;;;;;;8.38;100.00;100454.56;5070734;28;19925;-83
2023/03/29 08:34:23;;;;;;;;;;;;;;;8.56;100.00;100462.03;5071302;28;19924;-85
2023/03/29 08:37:02;;;;;;;;;;;;;;;8.85;99.62;100456.47;5071853;28;20075;-83
2023/03/29 08:39:36;;;;;;;;;;;;;;;8.96;98.68;100467.06;5071309;28;19925;-85
2023/03/29 08:42:29;;;;;;;;;;;;;;;9.14;97.98;100463.13;5071328;28;19927;-84
2023/03/29 08:44:58;;;;;;;;;;;;;;;9.32;97.98;100464.41;5070596;28;19920;-83
2023/03/29 08:47:33;;;;;;;;;;;;;;;9.49;97.56;100467.59;5068306;28;19924;-83
2023/03/29 08:49:58;;;;;;;;;;;;;;;9.57;97.07;100468.72;5067725;28;19920;-82
2023/03/29 08:52:37;;;;;;;;;;;;;;;9.73;96.78;100463.13;5071081;28;19931;-83
2023/03/29 08:55:26;;;;;;;;;;;;;;;9.92;95.37;100458.16;5071826;28;20008;-84
2023/03/29 08:58:27;;;;;;;;;;;;;;;10.10;95.47;100451.47;5071131;28;19932;-82
2023/03/29 09:00:55;;;;;;;;;;;;;;;10.26;94.17;100452.00;5070288;28;20038;-87
2023/03/29 09:03:28;;;;;;;;;;;;;;;10.43;94.52;100455.09;5072432;28;19924;-84
2023/03/29 09:06:08;;;;;;;;;;;;;;;10.56;94.43;100450.56;5076834;28;20334;-85
2023/03/29 09:08:45;;;;;;;;;;;;;;;10.67;95.57;100455.81;5085913;28;19984;-86
2023/03/29 09:11:17;;;;;;;;;;;;;;;10.80;96.18;100455.69;5082643;28;20043;-87
2023/03/29 09:13:50;;;;;;;;;;;;;;;10.89;98.42;100461.09;5083480;28;20050;-86
2023/03/29 09:16:26;;;;;;;;;;;;;;;11.00;98.00;100457.59;5075380;28;19920;-85
2023/03/29 09:19:14;;;;;;;;;;;;;;;11.14;97.53;100465.22;5109038;28;19941;-86
2023/03/29 09:21:40;;;;;;;;;;;;;;;11.22;97.68;100459.31;5082953;28;19989;-87
2023/03/29 09:24:19;;;;;;;;;;;;;;;11.32;97.29;100452.31;5089638;28;22438;-83
2023/03/29 09:26:54;;;;;;;;;;;;;;;11.42;96.32;100445.34;5099027;28;19920;-83
2023/03/29 09:29:36;;;;;;;;;;;;;;;11.48;95.48;100437.75;5091002;28;20633;-83
2023/03/29 09:32:05;;;;;;;;;;;;;;;11.57;94.20;100424.69;5092927;28;19920;-84
2023/03/29 09:34:43;;;;;;;;;;;;;;;11.68;92.96;100414.06;5107389;28;19985;-83
2023/03/29 09:37:24;;;;;;;;;;;;;;;11.80;91.26;100426.28;5088545;28;20275;-83
2023/03/29 09:39:51;;;;;;;;;;;;;;;11.83;91.16;100426.88;5096082;28;19915;-83
2023/03/29 09:42:19;;;;;;;;;;;;;;;11.89;91.15;100436.94;5090043;28;19924;-83
2023/03/29 09:44:52;;;;;;;;;;;;;;;11.96;91.15;100442.53;5091173;28;19919;-83
2023/03/29 09:47:33;;;;;;;;;;;;;;;12.06;90.21;100434.66;5112281;28;20434;-83
2023/03/29 09:50:05;;;;;;;;;;;;;;;12.11;90.40;100435.13;5101302;28;19916;-83
2023/03/29 09:52:31;;;;;;;;;;;;;;;12.20;90.45;100436.94;5096317;28;19985;-84
2023/03/29 09:55:06;;;;;;;;;;;;;;;12.31;89.84;100436.91;5095223;28;19977;-85
2023/03/29 09:58:11;;;;;;;;;;;;;;;12.37;89.49;100433.69;5107452;28;19919;-85
2023/03/29 10:00:39;;;;;;;;;;;;;;;12.44;89.04;100432.19;5121419;28;19920;-84
2023/03/29 10:03:04;;;;;;;;;;;;;;;12.36;88.80;100424.09;5117704;28;19995;-84
2023/03/29 10:05:44;;;;;;;;;;;;;;;12.31;89.40;100415.72;5098586;28;20015;-84
2023/03/29 10:08:18;;;;;;;;;;;;;;;12.30;89.53;100429.91;5099658;28;19920;-85
2023/03/29 10:10:43;;;;;;;;;;;;;;;12.22;91.38;100422.63;5103818;28;19920;-86
2023/03/29 10:13:12;;;;;;;;;;;;;;;12.30;91.30;100408.75;5118271;28;19920;-84
2023/03/29 10:15:37;;;;;;;;;;;;;;;12.40;91.22;100399.03;5099792;28;19938;-85
2023/03/29 10:18:05;;;;;;;;;;;;;;;12.50;90.65;100394.59;5114683;28;19988;-86
2023/03/29 10:20:34;;;;;;;;;;;;;;;12.59;89.94;100393.81;5092413;28;19924;-85
2023/03/29 10:23:00;;;;;;;;;;;;;;;12.64;89.92;100394.22;5102587;28;19920;-83
2023/03/29 10:25:30;;;;;;;;;;;;;;;12.71;89.79;100389.22;5112939;28;19931;-84
2023/03/29 10:28:01;;;;;;;;;;;;;;;12.77;89.44;100380.75;5104852;28;19977;-84
2023/03/29 10:30:27;;;;;;;;;;;;;;;12.85;89.48;100383.53;5089970;28;19973;-85
2023/03/29 10:32:57;;;;;;;;;;;;;;;12.94;89.56;100387.19;5107652;28;20380;-82
2023/03/29 10:35:37;;;;;;;;;;;;;;;13.03;90.60;100391.63;5095702;28;19920;-84
2023/03/29 10:38:04;;;;;;;;;;;;;;;13.07;90.02;100377.16;5104813;28;19966;-81
2023/03/29 10:40:31;;;;;;;;;;;;;;;13.14;89.99;100367.69;5106997;28;20006;-79
2023/03/29 10:43:09;;;;;;;;;;;;;;;13.22;90.33;100367.84;5102894;28;19930;-84
2023/03/29 10:45:36;;;;;;;;;;;;;;;13.23;89.71;100372.16;5085137;28;19924;-83
2023/03/29 10:48:03;;;;;;;;;;;;;;;13.29;89.93;100379.56;5107528;28;19924;-85
2023/03/29 10:50:33;;;;;;;;;;;;;;;13.34;90.31;100385.28;5108352;28;20023;-84
2023/03/29 10:52:59;;;;;;;;;;;;;;;13.38;90.32;100380.50;5116209;28;19976;-86
2023/03/29 10:55:26;;;;;;;;;;;;;;;13.38;90.36;100368.09;5114117;28;19920;-86
2023/03/29 10:58:02;;;;;;;;;;;;;;;13.40;90.47;100368.81;5107884;28;19927;-84
2023/03/29 11:00:35;;;;;;;;;;;;;;;13.43;90.11;100357.91;5099258;28;19988;-84
2023/03/29 11:03:07;;;;;;;;;;;;;;;13.47;90.76;100359.31;5099082;28;20336;-84
2023/03/29 11:05:38;;;;;;;;;;;;;;;13.54;90.21;100359.59;5104984;28;19920;-84
2023/03/29 11:08:27;;;;;;;;;;;;;;;13.62;90.06;100345.59;5102854;28;19981;-84
2023/03/29 11:11:02;;;;;;;;;;;;;;;13.65;89.72;100350.63;5102304;28;19987;-84
2023/03/29 11:13:30;;;;;;;;;;;;;;;13.72;89.96;100341.13;5104026;28;20275;-84
2023/03/29 11:15:56;;;;;;;;;;;;;;;13.81;90.55;100340.25;5103627;28;19921;-84
2023/03/29 11:18:28;;;;;;;;;;;;;;;13.97;89.58;100335.16;5106324;28;19926;-84
2023/03/29 11:21:09;;;;;;;;;;;;;;;14.01;89.15;100325.94;5089031;28;19920;-85
2023/03/29 11:23:34;;;;;;;;;;;;;;;14.10;88.99;100338.31;5104119;28;19920;-84
2023/03/29 11:26:06;;;;;;;;;;;;;;;14.20;88.16;100347.06;5111229;28;20344;-84
2023/03/29 11:28:48;;;;;;;;;;;;;;;14.25;87.59;100344.84;5109126;28;20317;-84
2023/03/29 11:31:32;;;;;;;;;;;;;;;14.27;87.06;100336.69;5107310;28;19927;-84
2023/03/29 11:34:19;;;;;;;;;;;;;;;14.43;87.34;100325.50;5100712;28;19977;-85
2023/03/29 11:36:55;;;;;;;;;;;;;;;14.56;86.31;100326.78;5105796;28;19920;-85
2023/03/29 11:39:39;;;;;;;;;;;;;;;14.76;86.06;100311.56;5108942;28;19927;-85
2023/03/29 11:42:20;;;;;;;;;;;;;;;15.01;84.60;100323.25;5106231;28;19931;-86
2023/03/29 11:44:47;;;;;;;;;;;;;;;15.24;83.34;100326.28;5114136;28;19964;-85
2023/03/29 11:47:24;;;;;;;;;;;;;;;15.41;81.14;100315.63;5106593;28;19927;-85
2023/03/29 11:49:54;;;;;;;;;;;;;;;15.55;78.08;100308.94;5093908;28;19942;-87
2023/03/29 11:52:29;;;;;;;;;;;;;;;15.66;76.59;100311.34;5071870;28;20415;-86
2023/03/29 11:54:57;;;;;;;;;;;;;;;15.73;75.37;100320.31;5103290;28;19926;-85
2023/03/29 11:57:26;;;;;;;;;;;;;;;15.78;74.40;100319.88;5104890;28;19991;-86
2023/03/29 11:59:54;;;;;;;;;;;;;;;15.86;74.91;100314.59;5108094;28;19938;-87
2023/03/29 12:02:38;;;;;;;;;;;;;;;15.78;75.40;100310.06;5085210;28;19946;-84
2023/03/29 12:05:10;;;;;;;;;;;;;;;15.88;75.46;100304.63;5104660;28;20044;-85
2023/03/29 12:07:39;;;;;;;;;;;;;;;16.01;74.48;100298.88;5107955;28;19920;-85
2023/03/29 12:10:15;;;;;;;;;;;;;;;16.08;73.94;100297.25;5089780;28;19924;-85
2023/03/29 12:12:59;;;;;;;;;;;;;;;16.26;73.29;100281.97;5087305;28;20322;-85
2023/03/29 12:15:34;;;;;;;;;;;;;;;16.51;69.38;100283.72;5103619;28;19942;-83
2023/03/29 12:18:22;;;;;;;;;;;;;;;16.73;65.75;100280.44;5103415;28;19920;-86
2023/03/29 12:20:52;;;;;;;;;;;;;;;16.86;64.53;100279.13;5105951;27;19919;-85
2023/03/29 12:23:18;;;;;;;;;;;;;;;17.00;63.44;100275.81;5068278;28;20287;-84
2023/03/29 12:25:51;;;;;;;;;;;;;;;17.07;61.62;100279.50;5087474;28;20339;-86
2023/03/29 12:28:19;;;;;;;;;;;;;;;17.23;61.35;100282.16;5106063;28;20383;-85
2023/03/29 12:31:03;;;;;;;;;;;;;;;17.35;60.25;100277.31;5101352;28;19924;-84
2023/03/29 12:33:33;;;;;;;;;;;;;;;17.46;58.07;100283.13;5107837;28;19920;-84
2023/03/29 12:36:55;;;;;;;;;;;;;;;17.53;57.57;100277.94;5077978;28;20294;-84
2023/03/29 12:39:39;;;;;;;;;;;;;;;17.63;57.25;100272.44;5103820;28;19947;-84
2023/03/29 12:42:25;;;;;;;;;;;;;;;17.72;57.33;100284.78;5100153;28;19920;-82
2023/03/29 12:45:13;;;;;;;;;;;;;;;17.78;57.25;100265.41;5103277;28;19927;-84
2023/03/29 12:47:42;;;;;;;;;;;;;;;17.87;57.05;100259.03;5082443;28;19973;-82
2023/03/29 12:50:31;;;;;;;;;;;;;;;17.91;56.87;100255.00;5085709;28;19932;-83
2023/03/29 12:53:01;;;;;;;;;;;;;;;18.14;56.97;100250.56;5100284;28;20392;-83
2023/03/29 12:55:32;;;;;;;;;;;;;;;18.15;54.67;100257.56;5104971;28;20303;-80
2023/03/29 12:58:03;;;;;;;;;;;;;;;18.21;54.63;100251.50;5098471;28;19924;-80
2023/03/29 13:00:41;;;;;;;;;;;;;;;18.31;54.50;100251.31;5100550;28;19920;-76
2023/03/29 13:03:21;;;;;;;;;;;;;;;18.42;54.15;100249.06;5104975;28;20342;-83
2023/03/29 13:05:57;;;;;;;;;;;;;;;18.61;53.31;100247.00;5102628;28;19927;-77